Time;durP1;ratioP1;P1;durP2;ratioP2;P2;SDS_P1;SDS_P2;PMS_P1;PMS_P2;Temp;Humidity;BMP_temperature;BMP_pressure;BME280_temperature;BME280_humidity;BME280_pressure;Samples;Min_cycle;Max_cycle;Signal;HPM_P1;HPM_P2
2022/05/14 00:01:06;;;;;;;1.50;1.40;;;;;;;10.99;66.62;101985.72;4973807;28;20508;-77
2022/05/14 00:03:34;;;;;;;1.70;1.50;;;;;;;10.97;67.59;101990.94;4973841;28;20105;-77
2022/05/14 00:06:01;;;;;;;1.77;1.67;;;;;;;10.95;66.77;101992.66;4972968;28;20080;-77
2022/05/14 00:08:29;;;;;;;2.42;1.80;;;;;;;10.94;66.15;101987.47;4974039;28;20031;-77
2022/05/14 00:13:39;;;;;;;2.20;1.60;;;;;;;10.94;66.08;101988.31;4973812;28;20081;-77
2022/05/14 00:16:05;;;;;;;2.70;1.97;;;;;;;10.93;66.89;101991.78;4973534;28;20027;-77
2022/05/14 00:18:32;;;;;;;1.23;1.13;;;;;;;10.93;66.73;101993.53;4972936;28;20039;-77
2022/05/14 00:20:57;;;;;;;2.38;1.60;;;;;;;10.93;66.66;101990.94;4972913;28;20797;-77
2022/05/14 00:23:23;;;;;;;2.00;1.80;;;;;;;10.93;66.38;101983.13;4973455;28;20034;-77
2022/05/14 00:25:48;;;;;;;1.47;1.37;;;;;;;10.91;67.14;101988.34;4972181;28;20031;-77
2022/05/14 00:28:14;;;;;;;1.37;1.27;;;;;;;10.91;66.11;101983.16;4973668;28;20050;-77
2022/05/14 00:30:40;;;;;;;2.53;1.50;;;;;;;10.91;65.83;101977.94;4973491;28;20019;-77
2022/05/14 00:33:06;;;;;;;1.40;1.30;;;;;;;10.93;65.93;101984.00;4973189;28;20102;-77
2022/05/14 00:35:32;;;;;;;1.88;1.17;;;;;;;10.91;66.01;101977.94;4973327;28;20022;-77
2022/05/14 00:38:01;;;;;;;1.48;1.38;;;;;;;10.91;65.81;101974.47;4973566;28;20045;-77
2022/05/14 00:40:35;;;;;;;1.33;1.23;;;;;;;10.90;65.80;101976.22;4972917;28;20106;-77
2022/05/14 00:43:01;;;;;;;1.92;1.58;;;;;;;10.90;66.36;101976.22;4973370;28;20035;-77
2022/05/14 00:45:28;;;;;;;1.60;1.50;;;;;;;10.87;66.75;101972.72;4973145;28;20427;-77
2022/05/14 00:47:56;;;;;;;1.85;1.70;;;;;;;10.86;65.55;101973.59;4972661;28;20027;-77
2022/05/14 00:50:27;;;;;;;2.17;1.50;;;;;;;10.84;65.16;101971.00;4973207;28;20093;-77
2022/05/14 00:53:02;;;;;;;1.83;1.40;;;;;;;10.80;66.08;101970.13;5062799;23;20047;-77
2022/05/14 00:55:28;;;;;;;1.75;1.23;;;;;;;10.82;65.66;101980.50;4976756;28;20041;-77
2022/05/14 00:57:54;;;;;;;1.63;1.37;;;;;;;10.81;65.49;101974.47;4976800;28;20034;-77
2022/05/14 01:00:22;;;;;;;1.47;1.33;;;;;;;10.80;66.11;101972.72;4976509;28;20019;-77
2022/05/14 01:02:48;;;;;;;1.10;1.10;;;;;;;10.78;65.72;101971.00;4976762;28;20375;-77
2022/05/14 01:05:16;;;;;;;1.42;1.33;;;;;;;10.74;65.86;101967.53;4977214;28;20086;-77
2022/05/14 01:07:43;;;;;;;0.88;0.88;;;;;;;10.74;65.89;101966.66;4976220;28;20031;-77
2022/05/14 01:10:11;;;;;;;2.28;1.25;;;;;;;10.73;65.25;101977.88;4977097;28;20113;-76
2022/05/14 01:12:40;;;;;;;1.63;1.50;;;;;;;10.66;65.89;101972.69;4976684;28;20061;-77
2022/05/14 01:15:12;;;;;;;2.13;1.40;;;;;;;10.65;65.72;101970.06;4976078;28;20031;-76
2022/05/14 01:17:38;;;;;;;1.50;1.40;;;;;;;10.61;65.41;101969.22;4976134;28;20043;-77
2022/05/14 01:20:04;;;;;;;1.40;1.30;;;;;;;10.61;65.44;101963.16;4976483;28;20027;-77
2022/05/14 01:22:35;;;;;;;2.75;1.40;;;;;;;10.62;65.66;101970.09;4975309;28;20027;-77
2022/05/14 01:28:01;;;;;;;1.20;1.20;;;;;;;10.52;65.86;101964.00;4975783;28;20085;-77
2022/05/14 01:30:29;;;;;;;2.40;1.40;;;;;;;10.48;65.86;101964.84;4974834;28;20043;-76
2022/05/14 01:33:06;;;;;;;1.60;1.50;;;;;;;10.46;67.00;101966.59;4976405;28;20027;-76
2022/05/14 01:35:38;;;;;;;1.50;1.40;;;;;;;10.41;66.69;101963.97;4975917;28;20027;-77
2022/05/14 01:38:03;;;;;;;2.33;1.70;;;;;;;10.38;66.28;101970.88;4976240;28;20030;-77
2022/05/14 01:40:31;;;;;;;1.50;1.37;;;;;;;10.35;66.12;101971.69;4976305;28;20029;-77
2022/05/14 01:42:57;;;;;;;1.88;1.48;;;;;;;10.32;66.93;101977.75;4975083;28;20062;-77
2022/05/14 01:45:22;;;;;;;1.73;1.60;;;;;;;10.30;66.26;101973.44;4976471;28;20026;-77
2022/05/14 01:47:48;;;;;;;1.60;1.50;;;;;;;10.30;66.28;101981.22;4975494;28;20105;-76
2022/05/14 01:50:14;;;;;;;1.93;1.60;;;;;;;10.26;66.36;101975.13;4975487;28;20038;-77
2022/05/14 01:52:39;;;;;;;2.37;1.83;;;;;;;10.23;66.76;101979.44;4975569;28;20051;-77
2022/05/14 01:55:05;;;;;;;1.90;1.70;;;;;;;10.20;66.79;101981.13;4976288;28;20027;-77
2022/05/14 01:57:30;;;;;;;1.50;1.40;;;;;;;10.16;66.52;101976.81;4976161;28;20027;-76
2022/05/14 02:00:25;;;;;;;1.93;1.57;;;;;;;10.14;66.73;101980.25;4975728;28;20062;-77
2022/05/14 02:02:50;;;;;;;1.48;1.30;;;;;;;10.10;67.17;101978.50;4962922;28;20038;-77
2022/05/14 02:05:17;;;;;;;1.40;1.30;;;;;;;10.06;66.95;101982.81;4973955;28;20023;-76
2022/05/14 02:07:43;;;;;;;1.83;1.50;;;;;;;9.98;67.14;101975.00;4975454;28;20035;-77
2022/05/14 02:10:09;;;;;;;2.10;1.83;;;;;;;9.97;67.79;101982.75;4975766;28;20037;-77
2022/05/14 02:12:35;;;;;;;4.18;2.22;;;;;;;9.90;68.05;101979.28;4975166;28;20039;-77
2022/05/14 02:15:04;;;;;;;2.67;2.00;;;;;;;9.86;68.17;101974.94;4975574;28;20027;-76
2022/05/14 02:17:30;;;;;;;3.03;1.98;;;;;;;9.86;69.18;101972.34;4974677;28;20356;-77
2022/05/14 02:19:55;;;;;;;2.33;1.80;;;;;;;9.86;68.10;101985.28;4974961;28;20030;-76
2022/05/14 02:22:21;;;;;;;2.30;1.97;;;;;;;9.84;68.31;101974.03;4975562;28;20023;-76
2022/05/14 02:24:46;;;;;;;1.77;1.67;;;;;;;9.83;68.72;101977.50;4974275;28;20035;-77
2022/05/14 02:27:11;;;;;;;1.60;1.30;;;;;;;9.86;68.53;101982.72;4975468;28;20077;-76
2022/05/14 02:30:10;;;;;;;1.70;1.60;;;;;;;9.86;67.97;101983.56;4975187;28;20376;-76
2022/05/14 02:32:28;;;;;;;1.33;1.23;;;;;;;9.86;67.47;101988.75;4974390;28;20496;-77
2022/05/14 02:34:54;;;;;;;2.40;1.50;;;;;;;9.84;68.29;101987.91;4974983;28;20046;-77
2022/05/14 02:37:23;;;;;;;2.65;1.55;;;;;;;9.83;68.39;101987.88;4974725;28;20180;-77
2022/05/14 02:39:49;;;;;;;1.70;1.60;;;;;;;9.80;68.08;101986.13;4973740;28;20479;-77
2022/05/14 02:42:15;;;;;;;1.83;1.57;;;;;;;9.82;67.65;101986.13;4975166;28;20031;-76
2022/05/14 02:44:40;;;;;;;1.80;1.60;;;;;;;9.80;67.39;101985.25;4974903;28;20030;-77
2022/05/14 02:47:06;;;;;;;2.43;1.60;;;;;;;9.80;67.97;101985.25;4974009;28;20534;-77
2022/05/14 02:49:31;;;;;;;2.60;1.70;;;;;;;9.78;67.50;101989.56;4975299;28;20030;-76
2022/05/14 02:51:57;;;;;;;1.67;1.57;;;;;;;9.77;67.06;101987.84;4974444;28;20049;-76
2022/05/14 02:54:22;;;;;;;1.57;1.33;;;;;;;9.77;67.48;101990.44;4974038;28;20119;-77
2022/05/14 02:56:47;;;;;;;2.03;1.80;;;;;;;9.73;67.76;101987.81;4974093;28;20026;-77
2022/05/14 02:59:13;;;;;;;1.57;1.40;;;;;;;9.72;67.46;101993.84;4974841;28;20027;-77
2022/05/14 03:01:47;;;;;;;1.37;1.27;;;;;;;9.70;67.48;101994.69;4973977;28;20492;-77
2022/05/14 03:04:13;;;;;;;1.40;1.30;;;;;;;9.68;68.65;101994.66;4974871;28;20035;-77
2022/05/14 03:06:38;;;;;;;1.87;1.77;;;;;;;9.66;69.23;102000.72;4974137;28;20033;-77
2022/05/14 03:09:04;;;;;;;1.77;1.60;;;;;;;9.60;67.57;101993.75;4974417;28;20019;-77
2022/05/14 03:11:31;;;;;;;2.23;1.70;;;;;;;9.59;67.16;101989.44;4974838;28;20431;-77
2022/05/14 03:13:57;;;;;;;1.58;1.48;;;;;;;9.60;67.97;101993.75;4973486;28;20085;-77
2022/05/14 03:16:22;;;;;;;1.27;1.20;;;;;;;9.56;69.02;101990.28;4974220;28;20026;-76
2022/05/14 03:18:47;;;;;;;1.30;1.20;;;;;;;9.55;67.54;101992.88;4973879;28;20029;-77
2022/05/14 03:21:13;;;;;;;2.47;1.20;;;;;;;9.51;67.90;101986.81;4974217;28;20427;-77
2022/05/14 03:23:38;;;;;;;1.80;1.50;;;;;;;9.48;67.97;101985.88;4973640;28;20043;-77
2022/05/14 03:26:03;;;;;;;1.27;1.17;;;;;;;9.47;67.47;101987.63;4974544;28;20033;-77
2022/05/14 03:28:28;;;;;;;1.40;1.30;;;;;;;9.45;67.99;101989.34;4973759;28;20046;-76
2022/05/14 03:30:54;;;;;;;1.07;1.07;;;;;;;9.45;67.38;101991.06;4974087;28;20035;-77
2022/05/14 03:33:19;;;;;;;1.77;1.23;;;;;;;9.43;67.48;101989.34;4974537;28;20392;-76
2022/05/14 03:35:44;;;;;;;2.63;1.30;;;;;;;9.40;68.45;101984.13;4973015;28;20027;-76
2022/05/14 03:38:13;;;;;;;2.30;1.50;;;;;;;9.37;68.22;101978.06;4974503;28;20456;-77
2022/05/14 03:40:38;;;;;;;1.50;1.40;;;;;;;9.33;68.89;101984.94;4973569;28;20518;-77
2022/05/14 03:43:03;;;;;;;1.60;1.50;;;;;;;9.28;68.66;101986.59;4973306;28;20027;-77
2022/05/14 03:45:29;;;;;;;1.70;1.60;;;;;;;9.24;68.46;101990.00;4973886;28;20058;-76
2022/05/14 03:47:54;;;;;;;1.73;1.40;;;;;;;9.20;68.39;101977.91;4973496;28;20085;-77
2022/05/14 03:50:20;;;;;;;1.60;1.50;;;;;;;9.20;67.96;101980.50;4973300;28;20110;-76
2022/05/14 03:52:45;;;;;;;1.40;1.27;;;;;;;9.21;68.11;101982.25;4973503;28;20043;-77
2022/05/14 03:55:10;;;;;;;1.43;1.30;;;;;;;9.18;68.00;101979.63;4974282;28;20043;-77
2022/05/14 03:57:35;;;;;;;1.30;1.20;;;;;;;9.17;68.10;101980.47;4973224;28;20030;-77
2022/05/14 04:00:01;;;;;;;1.10;1.10;;;;;;;9.16;68.15;101983.91;4973781;28;20106;-76
2022/05/14 04:02:27;;;;;;;1.63;1.40;;;;;;;9.12;67.73;101983.88;4973719;28;20475;-76
2022/05/14 04:04:55;;;;;;;2.00;1.47;;;;;;;9.14;67.78;101980.44;4972750;28;20030;-76
2022/05/14 04:07:21;;;;;;;1.50;1.40;;;;;;;9.14;67.97;101986.50;4974031;28;20361;-77
2022/05/14 04:09:46;;;;;;;1.67;1.40;;;;;;;9.11;68.65;101991.63;5072288;23;20055;-76
2022/05/14 04:12:11;;;;;;;1.93;1.60;;;;;;;9.14;67.95;101998.56;4973243;28;20392;-77
2022/05/14 04:14:36;;;;;;;2.42;1.52;;;;;;;9.12;69.30;101986.47;4973813;28;20034;-77
2022/05/14 04:17:02;;;;;;;1.50;1.40;;;;;;;9.14;69.79;101994.25;4972902;28;20026;-77
2022/05/14 04:19:28;;;;;;;1.30;1.15;;;;;;;9.14;68.54;101999.44;4973913;28;20058;-76
2022/05/14 04:21:53;;;;;;;1.47;1.37;;;;;;;9.11;68.85;102002.00;4973407;28;20110;-77
2022/05/14 04:24:18;;;;;;;1.93;1.53;;;;;;;9.11;68.44;101997.69;4973177;28;20477;-77
2022/05/14 04:26:43;;;;;;;2.08;1.63;;;;;;;9.10;71.42;101997.66;4973414;28;20031;-77
2022/05/14 04:29:09;;;;;;;1.75;1.65;;;;;;;9.09;69.86;101993.34;4976520;28;20030;-77
2022/05/14 04:31:35;;;;;;;1.80;1.70;;;;;;;9.09;69.13;102008.88;4977035;28;20030;-76
2022/05/14 04:34:00;;;;;;;2.33;1.70;;;;;;;9.10;68.59;101997.66;4977282;28;20375;-77
2022/05/14 04:36:26;;;;;;;3.07;1.70;;;;;;;9.11;68.53;102000.28;4977670;28;20452;-77
2022/05/14 04:38:51;;;;;;;2.40;2.00;;;;;;;9.13;70.40;102000.28;4976621;28;20046;-76
2022/05/14 04:41:17;;;;;;;2.80;1.90;;;;;;;9.08;73.08;102002.84;4977388;28;20140;-77
2022/05/14 04:43:43;;;;;;;2.83;2.10;;;;;;;9.08;69.89;102008.03;4976897;28;20488;-76
2022/05/14 04:46:11;;;;;;;1.90;1.80;;;;;;;9.10;69.43;102006.31;4976261;28;20109;-77
2022/05/14 04:48:37;;;;;;;1.80;1.70;;;;;;;9.14;69.29;102003.75;4976414;28;20110;-76
2022/05/14 04:51:02;;;;;;;3.13;2.17;;;;;;;9.18;72.40;101992.56;4977235;28;20420;-76
2022/05/14 04:53:27;;;;;;;2.33;1.80;;;;;;;9.18;70.39;102003.78;4976205;28;20383;-76
2022/05/14 04:55:53;;;;;;;4.20;2.10;;;;;;;9.18;70.12;101996.00;4977078;28;20023;-76
2022/05/14 04:58:27;;;;;;;5.40;2.30;;;;;;;9.20;73.16;102009.00;4977345;28;20034;-76
2022/05/14 05:00:52;;;;;;;3.38;2.20;;;;;;;9.22;71.81;102002.97;4976086;28;20030;-76
2022/05/14 05:08:31;;;;;;;3.13;2.10;;;;;;;9.32;69.87;102003.91;5033515;28;20082;-76
2022/05/14 05:10:57;;;;;;;2.88;2.00;;;;;;;9.36;72.00;102010.84;5035469;28;20026;-76
2022/05/14 05:13:25;;;;;;;2.13;1.87;;;;;;;9.40;70.08;102017.81;5034198;28;20064;-76
2022/05/14 05:15:51;;;;;;;2.10;1.85;;;;;;;9.46;69.61;102016.97;5035162;28;20272;-77
2022/05/14 05:18:19;;;;;;;2.80;2.00;;;;;;;9.54;71.55;102027.41;5035402;28;20516;-77
2022/05/14 05:20:48;;;;;;;3.53;1.98;;;;;;;9.60;71.11;102024.00;5034518;28;20104;-77
2022/05/14 05:23:25;;;;;;;2.00;1.80;;;;;;;9.64;70.14;102026.63;5035437;28;20079;-77
2022/05/14 05:25:50;;;;;;;1.80;1.70;;;;;;;9.71;69.81;102027.56;5034574;28;20041;-78
2022/05/14 05:28:18;;;;;;;2.27;1.70;;;;;;;9.77;70.52;102031.91;5034816;28;20436;-77
2022/05/14 05:30:44;;;;;;;1.77;1.67;;;;;;;9.82;69.77;102041.47;5034845;28;20022;-76
2022/05/14 05:33:10;;;;;;;2.33;1.50;;;;;;;9.85;70.08;102032.81;5035488;28;20042;-78
2022/05/14 05:35:36;;;;;;;2.30;1.40;;;;;;;9.92;70.81;102034.59;5034432;28;20060;-78
2022/05/14 05:38:01;;;;;;;2.20;1.73;;;;;;;9.96;70.79;102040.69;5035239;28;20482;-78
2022/05/14 05:40:26;;;;;;;1.50;1.40;;;;;;;10.00;69.88;102038.13;5035137;28;20025;-78
2022/05/14 05:42:54;;;;;;;1.80;1.70;;;;;;;10.08;70.03;102037.28;5034076;28;20040;-78
2022/05/14 05:45:20;;;;;;;2.00;1.40;;;;;;;10.15;71.10;102036.47;5034766;28;20536;-76
2022/05/14 05:47:48;;;;;;;2.77;1.50;;;;;;;10.20;71.06;102045.16;5034449;28;20033;-76
2022/05/14 05:50:13;;;;;;;2.85;2.20;;;;;;;10.25;72.25;102042.56;5034466;28;20029;-77
2022/05/14 05:52:39;;;;;;;2.87;2.10;;;;;;;10.28;70.83;102037.41;5033166;28;20042;-76
2022/05/14 05:57:48;;;;;;;2.60;2.00;;;;;;;10.44;72.23;102052.22;5033241;28;20029;-77
2022/05/14 06:00:21;;;;;;;2.37;1.93;;;;;;;10.50;71.81;102051.38;5033698;28;20029;-77
2022/05/14 06:02:46;;;;;;;1.90;1.80;;;;;;;10.53;70.56;102047.94;5032987;28;20091;-79
2022/05/14 06:05:13;;;;;;;1.97;1.73;;;;;;;10.59;71.73;102051.41;5034713;28;20462;-78
2022/05/14 06:07:42;;;;;;;2.40;2.15;;;;;;;10.67;72.58;102051.44;5034516;28;20080;-79
2022/05/14 06:10:10;;;;;;;2.38;2.00;;;;;;;10.76;72.81;102061.00;5033904;28;20561;-77
2022/05/14 06:12:46;;;;;;;2.30;2.05;;;;;;;10.82;71.89;102064.50;5034436;28;20120;-76
2022/05/14 06:15:17;;;;;;;2.50;1.92;;;;;;;10.90;71.98;102059.31;5033670;28;20040;-75
2022/05/14 06:17:43;;;;;;;3.05;2.00;;;;;;;10.94;71.26;102048.06;5031699;28;20099;-75
2022/05/14 06:20:14;;;;;;;2.03;1.83;;;;;;;11.03;72.82;102052.41;5034019;28;20481;-75
2022/05/14 06:22:40;;;;;;;3.83;2.60;;;;;;;11.12;72.33;102052.44;5033842;28;20021;-76
2022/05/14 06:25:07;;;;;;;6.23;2.70;;;;;;;11.21;73.22;102067.19;5033507;28;20045;-76
2022/05/14 06:27:32;;;;;;;6.65;2.92;;;;;;;11.44;73.17;102068.94;5033948;28;20068;-76
2022/05/14 06:29:58;;;;;;;3.20;2.30;;;;;;;12.10;72.71;102062.84;5033873;28;20413;-76
2022/05/14 06:32:23;;;;;;;8.67;2.73;;;;;;;12.89;72.79;102074.72;5033407;28;20032;-75
2022/05/14 06:34:51;;;;;;;3.30;2.50;;;;;;;14.13;69.78;102074.66;5033077;28;20024;-76
2022/05/14 06:37:17;;;;;;;4.90;2.78;;;;;;;14.82;68.78;102077.38;5034122;28;20021;-76
2022/05/14 06:39:43;;;;;;;2.70;2.33;;;;;;;16.01;68.24;102074.66;5032960;28;20025;-76
2022/05/14 06:42:11;;;;;;;5.67;3.10;;;;;;;17.69;61.25;102075.38;5033807;28;20021;-76
2022/05/14 06:44:37;;;;;;;3.55;2.63;;;;;;;18.85;60.93;102083.63;5033643;28;20025;-75
2022/05/14 06:47:02;;;;;;;3.83;2.30;;;;;;;19.69;57.08;102087.13;5032762;28;20057;-76
2022/05/14 06:49:27;;;;;;;3.63;2.20;;;;;;;20.31;54.87;102077.94;5033546;28;20052;-76
2022/05/14 06:51:57;;;;;;;5.27;2.57;;;;;;;20.63;54.81;102085.53;5032030;28;20499;-76
2022/05/14 06:54:22;;;;;;;8.82;3.30;;;;;;;20.74;51.67;102080.75;5033671;28;20034;-76
2022/05/14 06:56:51;;;;;;;8.30;3.37;;;;;;;20.42;51.42;102090.72;5033317;28;20052;-76
2022/05/14 06:59:16;;;;;;;9.50;3.75;;;;;;;20.06;51.38;102088.47;5032031;28;20029;-76
2022/05/14 07:01:44;;;;;;;5.17;3.10;;;;;;;19.59;53.47;102083.94;5032109;28;20132;-76
2022/05/14 07:06:57;;;;;;;6.43;2.88;;;;;;;19.10;52.21;102075.84;5031889;28;20155;-76
2022/05/14 07:09:29;;;;;;;4.93;2.97;;;;;;;18.71;55.08;102077.00;5033415;28;20033;-76
2022/05/14 07:12:03;;;;;;;4.20;2.53;;;;;;;18.48;55.90;102073.28;5033005;28;20021;-79
2022/05/14 07:14:28;;;;;;;5.63;3.20;;;;;;;18.16;55.71;102080.31;5032546;28;20026;-79
2022/05/14 07:16:56;;;;;;;6.67;3.73;;;;;;;17.77;56.03;102076.97;5032555;28;20040;-79
2022/05/14 07:19:23;;;;;;;7.13;3.47;;;;;;;17.54;56.24;102078.41;5032490;28;20086;-78
2022/05/14 07:21:50;;;;;;;5.63;3.40;;;;;;;17.39;57.65;102082.28;5031904;28;20021;-78
2022/05/14 07:24:25;;;;;;;3.33;2.60;;;;;;;17.29;58.34;102085.09;5032578;28;20527;-78
2022/05/14 07:26:53;;;;;;;3.63;2.58;;;;;;;17.38;58.84;102085.81;5032468;28;20036;-79
2022/05/14 07:29:21;;;;;;;4.72;2.40;;;;;;;17.44;58.99;102083.00;5032594;28;20017;-78
2022/05/14 07:31:46;;;;;;;5.80;2.60;;;;;;;17.47;59.01;102075.06;5032669;28;20021;-79
2022/05/14 07:34:12;;;;;;;3.37;2.27;;;;;;;17.52;59.07;102081.06;5032342;28;20063;-79
2022/05/14 07:36:43;;;;;;;4.23;2.90;;;;;;;17.50;58.95;102074.13;5032691;28;20145;-78
2022/05/14 07:39:10;;;;;;;6.38;2.90;;;;;;;17.41;57.59;102073.47;5032733;28;20029;-79
2022/05/14 07:41:39;;;;;;;7.53;3.70;;;;;;;17.28;58.74;102079.91;5032061;28;20037;-78
2022/05/14 07:44:08;;;;;;;5.10;3.20;;;;;;;17.25;59.21;102091.34;5033010;28;20081;-84
2022/05/14 07:46:36;;;;;;;5.68;3.10;;;;;;;17.21;59.10;102089.66;5032693;28;20029;-79
2022/05/14 07:49:07;;;;;;;12.93;5.03;;;;;;;17.15;57.90;102081.97;5032153;28;20021;-77
2022/05/14 07:51:32;;;;;;;8.68;3.90;;;;;;;17.08;59.47;102085.59;5032788;28;20104;-77
2022/05/14 07:53:57;;;;;;;7.50;3.40;;;;;;;17.13;58.97;102083.75;5032219;28;20049;-77
2022/05/14 07:56:23;;;;;;;8.77;4.10;;;;;;;16.97;59.03;102088.47;5032082;28;20029;-77
2022/05/14 07:58:48;;;;;;;8.30;3.83;;;;;;;16.94;59.64;102086.75;5032697;28;20029;-77
2022/05/14 08:01:14;;;;;;;5.07;2.80;;;;;;;17.02;59.84;102091.84;5032261;28;20489;-77
2022/05/14 08:03:48;;;;;;;3.10;2.47;;;;;;;17.12;59.90;102092.50;5117449;22;20375;-77
2022/05/14 08:06:22;;;;;;;3.67;2.25;;;;;;;17.24;59.56;102086.97;4973949;28;20034;-77
2022/05/14 08:18:52;;;;;;;7.18;3.30;;;;;;;17.45;58.62;102092.63;4974556;28;20049;-79
2022/05/14 08:26:54;;;;;;;9.63;4.32;;;;;;;17.60;58.87;102088.75;5112541;23;20079;-79
2022/05/14 08:29:21;;;;;;;11.50;5.07;;;;;;;17.69;58.46;102096.38;5072315;28;20465;-78
2022/05/14 08:31:46;;;;;;;5.60;3.30;;;;;;;17.77;59.04;102092.72;5071366;28;20093;-80
2022/05/14 08:34:20;;;;;;;7.23;3.57;;;;;;;17.86;58.58;102090.69;5070627;28;20465;-79
2022/05/14 08:36:46;;;;;;;4.10;2.60;;;;;;;18.00;58.78;102095.63;5071932;28;20030;-79
2022/05/14 08:39:11;;;;;;;5.43;2.67;;;;;;;18.16;57.01;102088.22;5071576;28;20029;-78
2022/05/14 08:41:41;;;;;;;10.90;4.57;;;;;;;18.15;58.46;102086.47;5072145;28;20404;-78
2022/05/14 08:44:10;;;;;;;6.10;3.28;;;;;;;18.32;58.15;102093.91;5072190;28;20032;-78
2022/05/14 08:46:40;;;;;;;4.88;3.10;;;;;;;18.47;57.81;102089.09;5068654;28;20361;-79
2022/05/14 08:49:15;;;;;;;4.43;2.70;;;;;;;18.64;57.57;102100.00;5072368;28;20065;-80
2022/05/14 08:51:49;;;;;;;3.25;2.10;;;;;;;18.84;57.76;102101.16;5071352;28;20036;-78
2022/05/14 08:54:14;;;;;;;7.65;3.42;;;;;;;19.01;55.54;102092.78;5072183;28;20473;-78
2022/05/14 08:56:51;;;;;;;6.77;2.93;;;;;;;19.07;56.56;102086.47;5071602;28;20081;-88
2022/05/14 08:59:49;;;;;;;3.10;2.42;;;;;;;19.20;56.89;102076.41;5071846;28;20033;-87
2022/05/14 09:02:22;;;;;;;3.33;2.15;;;;;;;19.34;56.61;102089.16;5072317;28;20366;-87
2022/05/14 09:04:50;;;;;;;3.30;2.10;;;;;;;19.50;56.44;102085.09;5071462;28;20024;-86
2022/05/14 09:07:16;;;;;;;2.60;1.80;;;;;;;19.69;56.42;102074.78;5071419;28;20028;-86
2022/05/14 09:09:56;;;;;;;3.13;2.10;;;;;;;19.89;55.65;102076.78;5071370;28;20473;-85
2022/05/14 09:12:26;;;;;;;6.97;2.47;;;;;;;20.01;53.71;102086.00;5051380;28;20390;-85
2022/05/14 09:14:55;;;;;;;4.22;2.38;;;;;;;20.05;52.78;102092.91;5053015;28;20021;-80
2022/05/14 09:17:22;;;;;;;7.03;3.47;;;;;;;19.99;54.16;102098.38;5055276;28;20021;-80
2022/05/14 09:19:50;;;;;;;7.55;3.35;;;;;;;19.98;54.19;102094.06;5054546;28;20222;-78
2022/05/14 09:22:42;;;;;;;3.75;2.40;;;;;;;20.14;55.04;102091.72;5277925;22;20003;-78
2022/05/14 09:25:21;;;;;;;2.00;1.90;;;;;;;20.41;55.19;102085.50;5055221;28;20377;-79
2022/05/14 09:27:59;;;;;;;10.25;4.10;;;;;;;20.48;51.45;102090.50;5054027;28;20534;-80
2022/05/14 09:30:35;;;;;;;12.48;4.55;;;;;;;20.35;53.38;102094.50;5054793;28;20079;-79
2022/05/14 09:33:02;;;;;;;7.57;3.55;;;;;;;20.47;53.48;102091.41;5040942;28;20043;-77
2022/05/14 09:35:30;;;;;;;6.35;3.00;;;;;;;20.64;52.93;102089.91;5053666;28;20033;-79
2022/05/14 09:38:07;;;;;;;5.82;2.90;;;;;;;20.74;50.87;102075.47;5054888;28;20032;-85
2022/05/14 09:40:32;;;;;;;9.00;3.78;;;;;;;20.77;50.97;102079.78;5054984;28;20106;-80
2022/05/14 09:43:16;;;;;;;5.83;2.90;;;;;;;20.92;52.35;102091.50;5054829;28;20072;-82
2022/05/14 09:46:04;;;;;;;3.33;2.47;;;;;;;21.10;52.13;102092.56;5054284;28;20279;-83
2022/05/14 09:48:47;;;;;;;2.60;1.90;;;;;;;21.27;49.64;102081.31;5052677;28;20049;-83
2022/05/14 09:51:53;;;;;;;3.00;1.90;;;;;;;21.29;51.73;102082.97;5053921;28;20033;-85
2022/05/14 09:54:23;;;;;;;3.03;2.13;;;;;;;21.41;50.89;102086.88;5024428;28;20045;-85
2022/05/14 09:57:11;;;;;;;1.77;1.67;;;;;;;21.55;48.99;102075.75;5036207;28;20039;-86
2022/05/14 10:00:06;;;;;;;5.05;2.22;;;;;;;21.53;46.26;102082.88;5053488;28;20021;-84
2022/05/14 10:03:18;;;;;;;6.63;2.90;;;;;;;21.34;48.77;102085.44;5054219;28;20127;-84
2022/05/14 10:06:18;;;;;;;3.78;2.33;;;;;;;21.50;50.53;102075.06;5023492;28;20554;-84
2022/05/14 10:09:07;;;;;;;5.70;2.40;;;;;;;21.70;48.10;102066.34;5053623;28;20025;-85
2022/05/14 10:11:39;;;;;;;15.73;5.20;;;;;;;21.42;45.25;102079.84;5052653;28;20047;-84
2022/05/14 10:14:29;;;;;;;8.30;3.70;;;;;;;21.43;47.46;102073.63;5054619;28;20393;-84
2022/05/14 10:17:43;;;;;;;4.57;2.55;;;;;;;21.63;49.13;102075.44;5053341;28;20028;-85
2022/05/14 10:20:17;;;;;;;3.13;2.30;;;;;;;21.82;48.60;102070.22;5040803;28;20052;-86
2022/05/14 10:29:00;;;;;;;9.77;3.80;;;;;;;21.97;44.46;102075.78;5054139;28;20040;-84
2022/05/14 10:31:48;;;;;;;8.13;3.22;;;;;;;22.02;44.90;102073.78;5053528;28;20120;-84
2022/05/14 10:34:21;;;;;;;12.52;4.72;;;;;;;21.68;43.78;102076.13;5054050;28;20049;-84
2022/05/14 10:37:04;;;;;;;9.65;4.50;;;;;;;21.70;45.26;102070.75;5053711;28;20120;-84
2022/05/14 10:39:56;;;;;;;7.05;3.10;;;;;;;21.93;45.74;102069.78;5053443;28;20029;-84
2022/05/14 10:42:53;;;;;;;7.30;3.15;;;;;;;22.16;43.29;102068.75;5033993;28;20033;-84
2022/05/14 10:45:26;;;;;;;11.98;4.70;;;;;;;22.10;42.98;102070.78;5005990;28;20041;-85
2022/05/14 10:48:07;;;;;;;9.52;3.80;;;;;;;22.22;44.66;102080.81;5053731;28;20021;-85
2022/05/14 10:53:55;;;;;;;7.10;3.35;;;;;;;22.78;42.87;102065.94;5053616;28;20071;-84
2022/05/14 10:59:33;;;;;;;6.35;2.72;;;;;;;22.94;45.01;102073.13;5052788;28;19919;-87
2022/05/14 11:02:13;;;;;;;6.25;2.60;;;;;;;23.13;44.54;102070.44;5052977;28;20033;-84
2022/05/14 11:04:42;;;;;;;7.18;2.80;;;;;;;23.31;41.93;102074.00;5053364;28;20033;-83
2022/05/14 11:07:32;;;;;;;7.80;3.70;;;;;;;23.18;39.99;102063.16;5052684;28;20158;-83
2022/05/14 11:10:19;;;;;;;10.57;4.00;;;;;;;22.99;40.05;102076.44;5051767;28;20041;-81
2022/05/14 11:12:47;;;;;;;9.25;3.90;;;;;;;22.96;39.83;102080.09;5052233;28;20028;-81
2022/05/14 11:15:25;;;;;;;5.38;2.70;;;;;;;23.08;42.11;102075.97;5053038;28;20378;-81
2022/05/14 11:18:04;;;;;;;9.35;3.90;;;;;;;23.24;37.34;102068.16;5053085;28;20080;-81
2022/05/14 11:20:30;;;;;;;7.30;3.20;;;;;;;23.18;40.63;102070.22;5052572;28;20120;-81
2022/05/14 11:23:06;;;;;;;7.60;3.00;;;;;;;23.29;39.55;102060.88;5053004;28;20362;-81
2022/05/14 11:25:32;;;;;;;5.40;2.50;;;;;;;23.36;39.91;102071.13;5053299;28;20404;-81
2022/05/14 11:28:09;;;;;;;8.40;3.53;;;;;;;23.27;40.49;102078.63;5052239;28;20036;-81
2022/05/14 11:30:42;;;;;;;4.25;2.30;;;;;;;23.51;42.05;102064.19;5053038;28;20484;-81
2022/05/14 11:33:25;;;;;;;2.40;2.00;;;;;;;23.84;41.60;102066.91;5052247;28;20029;-81
2022/05/14 11:35:57;;;;;;;4.10;2.10;;;;;;;24.04;40.54;102068.53;5052506;28;20032;-81
2022/05/14 11:38:23;;;;;;;2.58;1.90;;;;;;;24.26;39.71;102067.41;5052084;28;20082;-81
2022/05/14 11:41:04;;;;;;;1.87;1.73;;;;;;;24.52;39.49;102075.72;5051356;28;20029;-81
2022/05/14 11:43:36;;;;;;;3.78;2.40;;;;;;;24.48;38.53;102069.72;5049189;28;20025;-83
2022/05/14 11:46:39;;;;;;;5.53;2.88;;;;;;;23.94;36.32;102074.38;5047608;28;20389;-82
2022/05/14 11:49:21;;;;;;;10.25;4.28;;;;;;;23.40;36.91;102068.25;5031280;28;20030;-83
2022/05/14 11:52:07;;;;;;;5.68;2.83;;;;;;;23.21;40.07;102063.00;5032149;28;20084;-84
2022/05/14 11:54:44;;;;;;;6.45;2.88;;;;;;;23.50;40.21;102067.78;5030678;28;20470;-83
2022/05/14 11:57:21;;;;;;;14.55;4.25;;;;;;;23.62;38.51;102066.31;5032036;28;20045;-83
2022/05/14 11:59:54;;;;;;;8.45;3.38;;;;;;;23.65;39.01;102072.31;5031026;28;20061;-83
2022/05/14 12:02:32;;;;;;;5.50;2.78;;;;;;;23.85;39.74;102065.09;5048047;28;20033;-83
2022/05/14 12:05:01;;;;;;;6.25;2.92;;;;;;;23.97;40.03;102064.50;5052225;28;20118;-83
2022/05/14 12:07:51;;;;;;;5.38;2.53;;;;;;;24.18;38.50;102075.78;5052480;28;20028;-83
2022/05/14 12:10:27;;;;;;;4.45;2.13;;;;;;;24.39;38.72;102066.72;5051778;28;20489;-82
2022/05/14 12:12:55;;;;;;;9.82;4.30;;;;;;;24.20;36.16;102076.56;5052570;28;20029;-82
2022/05/14 12:15:24;;;;;;;13.35;4.53;;;;;;;23.70;36.92;102062.31;5050935;28;20378;-82
2022/05/14 12:17:52;;;;;;;8.23;3.47;;;;;;;23.80;36.66;102065.34;5052261;28;20100;-83
2022/05/14 12:22:52;;;;;;;3.85;2.70;;;;;;;23.67;39.56;102053.66;5241961;22;20090;-80
2022/05/14 12:25:17;;;;;;;3.63;2.30;;;;;;;24.09;37.96;102054.19;5072529;28;20028;-81
2022/05/14 12:27:49;;;;;;;10.27;3.70;;;;;;;24.03;37.12;102061.53;5072274;28;20074;-81